createdAt,value
2022-08-14T00:02:26.937Z,24.79
2022-08-14T00:04:56.168Z,24.74
2022-08-14T00:07:24.049Z,24.70
2022-08-14T00:09:55.623Z,24.66
2022-08-14T00:12:33.437Z,24.64
2022-08-14T00:15:18.320Z,24.62
2022-08-14T00:17:53.058Z,24.57
2022-08-14T00:20:31.166Z,24.54
2022-08-14T00:23:12.218Z,24.51
2022-08-14T00:26:06.260Z,24.50
2022-08-14T00:28:37.055Z,24.44
2022-08-14T00:31:08.209Z,24.37
2022-08-14T00:33:51.857Z,24.32
2022-08-14T00:36:39.386Z,24.28
2022-08-14T00:39:18.651Z,24.24
2022-08-14T00:41:48.164Z,24.18
2022-08-14T00:44:21.283Z,24.12
2022-08-14T00:47:02.495Z,24.13
2022-08-14T00:49:38.342Z,24.05
2022-08-14T00:52:18.095Z,24.00
2022-08-14T00:54:57.787Z,23.96
2022-08-14T00:57:33.673Z,23.95
2022-08-14T01:00:34.420Z,23.94
2022-08-14T01:03:03.368Z,23.94
2022-08-14T01:05:50.757Z,23.92
2022-08-14T01:08:51.576Z,23.93
2022-08-14T01:11:19.429Z,23.96
2022-08-14T01:13:56.123Z,23.95
2022-08-14T01:16:31.476Z,23.91
2022-08-14T01:19:19.742Z,23.87
2022-08-14T01:21:52.701Z,23.84
2022-08-14T01:24:30.361Z,23.79
2022-08-14T01:27:00.280Z,23.77
2022-08-14T01:30:00.578Z,23.74
2022-08-14T01:32:25.874Z,23.71
2022-08-14T01:35:19.619Z,23.66
2022-08-14T01:37:54.803Z,23.68
2022-08-14T01:40:36.658Z,23.65
2022-08-14T01:43:15.897Z,23.63
2022-08-14T01:46:06.302Z,23.59
2022-08-14T01:48:37.348Z,23.58
2022-08-14T01:51:19.178Z,23.56
2022-08-14T01:53:55.523Z,23.55
2022-08-14T01:56:39.529Z,23.49
2022-08-14T01:59:19.482Z,23.74
2022-08-14T02:01:58.374Z,23.54
2022-08-14T02:04:40.601Z,23.46
2022-08-14T02:07:27.267Z,23.41
2022-08-14T02:10:15.680Z,23.33
2022-08-14T02:12:54.182Z,23.28
2022-08-14T02:15:26.316Z,23.21
2022-08-14T02:17:54.158Z,23.17
2022-08-14T02:20:23.830Z,23.13
2022-08-14T02:22:54.830Z,23.06
2022-08-14T02:25:23.733Z,23.02
2022-08-14T02:28:24.384Z,23.02
2022-08-14T02:30:44.733Z,23.02
2022-08-14T02:33:13.466Z,23.00
2022-08-14T02:35:43.593Z,22.95
2022-08-14T02:38:29.579Z,22.94
2022-08-14T02:40:59.311Z,22.89
2022-08-14T02:43:37.218Z,22.84
2022-08-14T02:46:20.532Z,22.81
2022-08-14T02:49:04.611Z,22.81
2022-08-14T02:51:36.371Z,22.82
2022-08-14T02:54:07.944Z,22.84
2022-08-14T02:57:15.169Z,22.84
2022-08-14T02:59:33.796Z,22.85
2022-08-14T03:02:04.523Z,22.84
2022-08-14T03:04:32.932Z,22.79
2022-08-14T03:07:07.747Z,22.75
2022-08-14T03:10:24.770Z,22.73
2022-08-14T03:12:31.500Z,22.73
2022-08-14T03:15:16.288Z,22.69
2022-08-14T03:17:57.351Z,22.61
2022-08-14T03:20:30.434Z,22.53
2022-08-14T03:23:03.279Z,22.47
2022-08-14T03:25:37.821Z,22.41
2022-08-14T03:28:14.835Z,22.57
2022-08-14T03:30:59.782Z,22.38
2022-08-14T03:33:38.007Z,22.29
2022-08-14T03:37:39.213Z,22.23
2022-08-14T03:39:13.317Z,22.21
2022-08-14T03:41:44.151Z,22.19
2022-08-14T03:45:25.271Z,22.14
2022-08-14T03:47:00.191Z,22.12
2022-08-14T03:49:31.003Z,22.08
2022-08-14T03:52:00.653Z,22.05
2022-08-14T03:54:29.625Z,22.00
2022-08-14T03:57:02.393Z,21.98
2022-08-14T03:59:35.375Z,21.96
2022-08-14T04:02:04.479Z,21.90
2022-08-14T04:04:33.580Z,21.85
2022-08-14T04:07:02.000Z,21.86
2022-08-14T04:09:29.751Z,21.86
2022-08-14T04:11:59.976Z,21.82
2022-08-14T04:14:29.814Z,21.81
2022-08-14T04:16:57.838Z,21.78
2022-08-14T04:19:28.360Z,21.75
2022-08-14T04:22:03.654Z,21.72
2022-08-14T04:24:37.792Z,21.67
2022-08-14T04:27:12.113Z,21.68
2022-08-14T04:29:44.956Z,21.68
2022-08-14T04:32:58.578Z,21.66
2022-08-14T04:35:07.862Z,21.63
2022-08-14T04:37:57.176Z,21.62
2022-08-14T04:40:43.631Z,21.61
2022-08-14T04:43:38.756Z,21.60
2022-08-14T04:46:55.709Z,21.62
2022-08-14T04:49:04.145Z,21.67
2022-08-14T04:51:37.551Z,21.67
2022-08-14T04:54:17.248Z,21.70
2022-08-14T04:56:45.542Z,21.75
2022-08-14T04:59:13.493Z,21.79
2022-08-14T05:01:48.017Z,21.79
2022-08-14T05:04:22.998Z,21.83
2022-08-14T05:06:55.147Z,21.86
2022-08-14T05:09:29.412Z,21.94
2022-08-14T05:12:00.764Z,21.97
2022-08-14T05:14:54.549Z,22.01
2022-08-14T05:17:32.176Z,22.03
2022-08-14T05:21:04.772Z,22.10
2022-08-14T05:23:01.442Z,22.14
2022-08-14T05:25:30.677Z,22.15
2022-08-14T05:28:20.536Z,22.22
2022-08-14T05:30:55.372Z,22.24
2022-08-14T05:33:28.536Z,22.27
2022-08-14T05:36:02.666Z,22.30
2022-08-14T05:38:36.970Z,22.35
2022-08-14T05:41:13.452Z,22.40
2022-08-14T05:43:47.661Z,22.46
2022-08-14T05:46:18.974Z,22.48
2022-08-14T05:48:53.606Z,22.53
2022-08-14T05:51:23.446Z,22.58
2022-08-14T05:53:56.997Z,22.64
2022-08-14T05:56:29.766Z,22.68
2022-08-14T05:58:57.569Z,22.71
2022-08-14T06:01:31.572Z,22.72
2022-08-14T06:03:59.722Z,22.76
2022-08-14T06:06:28.093Z,22.78
2022-08-14T06:08:56.036Z,22.80
2022-08-14T06:11:30.728Z,22.88
2022-08-14T06:13:59.491Z,22.92
2022-08-14T06:16:27.559Z,22.95
2022-08-14T06:18:59.430Z,23.00
2022-08-14T06:21:27.747Z,23.06
2022-08-14T06:23:57.495Z,23.12
2022-08-14T06:26:29.954Z,23.16
2022-08-14T06:28:57.912Z,23.22
2022-08-14T06:31:25.781Z,23.26
2022-08-14T06:35:11.453Z,23.29
2022-08-14T06:36:41.480Z,23.38
2022-08-14T06:39:09.994Z,23.39
2022-08-14T06:41:57.987Z,23.44
2022-08-14T06:44:30.742Z,23.51
2022-08-14T06:47:02.983Z,23.55
2022-08-14T06:49:42.750Z,23.63
2022-08-14T06:52:15.132Z,23.72
2022-08-14T06:54:45.505Z,23.78
2022-08-14T06:57:13.985Z,23.85
2022-08-14T06:59:42.834Z,23.90
2022-08-14T07:02:30.222Z,23.97
2022-08-14T07:05:21.110Z,24.05
2022-08-14T07:07:51.959Z,24.12
2022-08-14T07:10:24.811Z,24.15
2022-08-14T07:13:01.255Z,24.22
2022-08-14T07:15:32.466Z,24.29
2022-08-14T07:18:03.758Z,24.32
2022-08-14T07:20:38.059Z,24.40
2022-08-14T07:23:10.883Z,24.44
2022-08-14T07:25:48.830Z,24.52
2022-08-14T07:28:43.177Z,24.62
2022-08-14T07:31:12.761Z,24.63
2022-08-14T07:33:50.543Z,24.65
2022-08-14T07:36:30.285Z,24.70
2022-08-14T07:39:03.079Z,24.75
2022-08-14T07:41:42.391Z,24.81
2022-08-14T07:44:29.489Z,24.87
2022-08-14T07:47:01.815Z,24.95
2022-08-14T07:49:34.175Z,24.99
2022-08-14T07:52:03.414Z,25.05
2022-08-14T07:54:31.714Z,25.11
2022-08-14T07:57:11.881Z,25.17
2022-08-14T07:59:43.735Z,25.22
2022-08-14T08:02:18.628Z,25.28
2022-08-14T08:04:59.286Z,25.36
2022-08-14T08:07:31.417Z,25.42
2022-08-14T08:10:46.261Z,25.48
2022-08-14T08:13:22.143Z,25.62
2022-08-14T08:15:57.310Z,25.66
2022-08-14T08:18:27.693Z,25.73
2022-08-14T08:20:59.763Z,25.79
2022-08-14T08:23:40.779Z,25.84
2022-08-14T08:26:18.792Z,25.92
2022-08-14T08:28:57.985Z,26.00
2022-08-14T08:31:32.924Z,26.05
2022-08-14T08:34:06.343Z,26.11
2022-08-14T08:36:42.029Z,26.17
2022-08-14T08:39:22.440Z,26.22
2022-08-14T08:41:53.759Z,26.26
2022-08-14T08:44:32.172Z,26.36
2022-08-14T08:47:06.759Z,26.42
2022-08-14T08:49:52.649Z,26.52
2022-08-14T08:52:31.525Z,26.60
2022-08-14T08:55:04.308Z,26.65
2022-08-14T08:57:37.818Z,26.72
2022-08-14T09:00:25.114Z,26.81
2022-08-14T09:03:11.478Z,26.89
2022-08-14T09:06:03.868Z,26.96
2022-08-14T09:08:37.409Z,27.03
2022-08-14T09:11:19.074Z,27.09
2022-08-14T09:13:53.361Z,27.20
2022-08-14T09:16:25.504Z,27.24
2022-08-14T09:18:55.273Z,27.30
2022-08-14T09:21:24.439Z,27.34
2022-08-14T09:24:29.600Z,27.39
2022-08-14T09:26:49.190Z,27.47
2022-08-14T09:29:22.905Z,27.52
2022-08-14T09:31:57.838Z,27.55
2022-08-14T09:34:58.799Z,27.63
2022-08-14T09:38:00.464Z,27.69
2022-08-14T09:40:51.294Z,27.72
2022-08-14T09:44:06.963Z,27.75
2022-08-14T09:46:35.658Z,27.80
2022-08-14T09:49:07.419Z,27.82
2022-08-14T09:51:51.790Z,27.91
2022-08-14T09:54:39.979Z,28.04
2022-08-14T09:57:10.288Z,28.08
2022-08-14T09:59:48.893Z,28.13
2022-08-14T10:02:31.814Z,28.22
2022-08-14T10:05:11.431Z,28.30
2022-08-14T10:07:53.902Z,28.38
2022-08-14T10:10:38.311Z,28.43
2022-08-14T10:13:21.454Z,28.50
2022-08-14T10:15:52.474Z,28.53
2022-08-14T10:18:26.324Z,28.60
2022-08-14T10:20:58.115Z,28.65
2022-08-14T10:23:42.860Z,28.72
2022-08-14T10:26:11.918Z,28.82
2022-08-14T10:29:18.789Z,28.86
2022-08-14T10:31:45.322Z,28.99
2022-08-14T10:34:29.119Z,29.07
2022-08-14T10:37:14.510Z,29.15
2022-08-14T10:40:05.532Z,29.20
2022-08-14T10:42:43.664Z,29.27
2022-08-14T10:45:25.878Z,29.32
2022-08-14T10:48:08.819Z,29.33
2022-08-14T10:50:46.497Z,29.38
2022-08-14T10:53:14.715Z,29.41
2022-08-14T10:55:45.387Z,29.45
2022-08-14T10:58:14.803Z,29.53
2022-08-14T11:00:57.181Z,29.59
2022-08-14T11:03:26.755Z,29.62
2022-08-14T11:06:22.416Z,29.71
2022-08-14T11:08:53.003Z,29.74
2022-08-14T11:11:28.552Z,29.75
2022-08-14T11:14:06.636Z,29.76
2022-08-14T11:16:39.378Z,29.81
2022-08-14T11:19:10.625Z,29.86
2022-08-14T11:21:41.295Z,29.89
2022-08-14T11:24:53.854Z,29.94
2022-08-14T11:27:05.717Z,30.03
2022-08-14T11:29:36.173Z,30.06
2022-08-14T11:32:06.747Z,30.09
2022-08-14T11:34:38.639Z,30.13
2022-08-14T11:37:18.686Z,30.17
2022-08-14T11:39:51.672Z,30.28
2022-08-14T11:42:57.775Z,30.32
2022-08-14T11:45:16.882Z,30.40
2022-08-14T11:48:13.471Z,30.44
2022-08-14T11:50:37.960Z,30.48
2022-08-14T11:53:32.872Z,30.55
2022-08-14T11:56:06.208Z,30.60
2022-08-14T11:58:38.778Z,30.68
2022-08-14T12:01:09.568Z,30.76
2022-08-14T12:03:57.084Z,30.76
2022-08-14T12:06:28.644Z,30.76
2022-08-14T12:09:03.757Z,30.85
2022-08-14T12:11:44.344Z,30.90
2022-08-14T12:14:34.670Z,30.96
2022-08-14T12:17:11.896Z,31.05
2022-08-14T12:19:53.880Z,31.14
2022-08-14T12:22:44.230Z,31.19
2022-08-14T12:25:21.634Z,31.25
2022-08-14T12:28:01.481Z,31.30
2022-08-14T12:30:43.405Z,31.40
2022-08-14T12:33:32.896Z,31.51
2022-08-14T12:36:20.976Z,31.59
2022-08-14T12:38:54.091Z,31.68
2022-08-14T12:41:28.127Z,31.74
2022-08-14T12:44:06.152Z,31.82
2022-08-14T12:46:43.741Z,31.92
2022-08-14T12:49:17.819Z,32.03
2022-08-14T12:51:58.337Z,32.11
2022-08-14T12:54:29.165Z,32.18
2022-08-14T12:57:19.298Z,32.31
2022-08-14T12:59:49.595Z,32.45
2022-08-14T13:02:27.467Z,32.54
2022-08-14T13:04:56.951Z,32.63
2022-08-14T13:07:32.932Z,32.64
2022-08-14T13:10:45.638Z,32.70
2022-08-14T13:13:13.074Z,32.82
2022-08-14T13:15:44.346Z,32.95
2022-08-14T13:18:15.943Z,33.04
2022-08-14T13:20:51.853Z,33.14
2022-08-14T13:23:30.704Z,33.26
2022-08-14T13:26:01.158Z,33.38
2022-08-14T13:28:34.463Z,33.49
2022-08-14T13:31:13.160Z,33.59
2022-08-14T13:33:41.395Z,33.69
2022-08-14T13:36:11.105Z,33.72
2022-08-14T13:38:53.692Z,34.14
2022-08-14T13:41:28.026Z,34.11
2022-08-14T13:44:00.694Z,34.15
2022-08-14T13:46:28.662Z,34.16
2022-08-14T13:48:59.904Z,34.27
2022-08-14T13:51:36.325Z,34.34
2022-08-14T13:54:10.988Z,34.49
2022-08-14T13:56:40.820Z,34.65
2022-08-14T13:59:10.901Z,34.84
2022-08-14T14:01:44.711Z,35.03
2022-08-14T14:04:19.777Z,35.22
2022-08-14T14:06:52.163Z,35.38
2022-08-14T14:09:32.598Z,35.54
2022-08-14T14:12:37.832Z,35.62
2022-08-14T14:15:05.442Z,35.73
2022-08-14T14:17:38.944Z,35.82
2022-08-14T14:20:34.327Z,35.94
2022-08-14T14:23:03.521Z,36.04
2022-08-14T14:25:49.336Z,36.14
2022-08-14T14:28:25.023Z,36.29
2022-08-14T14:30:57.437Z,36.43
2022-08-14T14:33:47.841Z,36.50
2022-08-14T14:36:24.268Z,36.60
2022-08-14T14:38:58.214Z,36.62
2022-08-14T14:41:38.099Z,36.70
2022-08-14T14:44:08.948Z,36.75
2022-08-14T14:46:41.577Z,36.73
2022-08-14T14:49:14.648Z,36.76
2022-08-14T14:51:51.451Z,36.79
2022-08-14T14:54:31.871Z,36.87
2022-08-14T14:57:08.975Z,36.92
2022-08-14T14:59:38.247Z,36.99
2022-08-14T15:02:09.321Z,36.99
2022-08-14T15:04:43.668Z,36.90
2022-08-14T15:07:12.484Z,36.77
2022-08-14T15:09:41.108Z,36.71
2022-08-14T15:12:34.753Z,36.68
2022-08-14T15:14:58.238Z,36.57
2022-08-14T15:17:41.357Z,36.45
2022-08-14T15:20:17.330Z,36.36
2022-08-14T15:23:01.126Z,36.31
2022-08-14T15:25:42.024Z,36.22
2022-08-14T15:28:12.766Z,36.13
2022-08-14T15:30:42.870Z,36.08
2022-08-14T15:33:14.253Z,36.04
2022-08-14T15:35:44.873Z,36.04
2022-08-14T15:38:17.886Z,36.02
2022-08-14T15:40:51.322Z,36.02
2022-08-14T15:43:19.544Z,36.00
2022-08-14T15:45:51.509Z,35.98
2022-08-14T15:48:22.182Z,35.92
2022-08-14T15:50:50.976Z,35.85
2022-08-14T15:53:23.484Z,35.77
2022-08-14T15:55:53.448Z,35.71
2022-08-14T15:58:22.939Z,35.58
2022-08-14T16:01:12.206Z,35.54
2022-08-14T16:03:46.378Z,35.52
2022-08-14T16:06:18.732Z,35.50
2022-08-14T16:08:58.683Z,35.52
2022-08-14T16:11:33.083Z,35.47
2022-08-14T16:14:01.823Z,35.39
2022-08-14T16:16:34.955Z,35.26
2022-08-14T16:19:21.239Z,35.11
2022-08-14T16:22:01.240Z,35.02
2022-08-14T16:25:02.458Z,34.96
2022-08-14T16:27:38.802Z,34.90
2022-08-14T16:33:08.695Z,34.76
2022-08-14T16:35:59.605Z,34.68
2022-08-14T16:38:47.981Z,34.59
2022-08-14T16:41:17.136Z,34.52
2022-08-14T16:43:45.973Z,34.43
2022-08-14T16:46:22.396Z,34.38
2022-08-14T16:48:56.953Z,34.35
2022-08-14T16:51:36.243Z,34.34
2022-08-14T16:54:33.701Z,34.31
2022-08-14T16:57:13.744Z,34.32
2022-08-14T16:59:52.884Z,34.23
2022-08-14T17:02:42.899Z,34.21
2022-08-14T17:05:25.138Z,34.13
2022-08-14T17:08:32.761Z,34.08
2022-08-14T17:11:10.772Z,34.02
2022-08-14T17:13:58.937Z,33.86
2022-08-14T17:16:37.421Z,33.63
2022-08-14T17:19:09.830Z,33.50
2022-08-14T17:21:47.251Z,33.34
2022-08-14T17:24:56.588Z,33.21
2022-08-14T17:27:10.839Z,33.04
2022-08-14T17:29:56.272Z,32.86
2022-08-14T17:32:44.553Z,32.64
2022-08-14T17:35:58.754Z,32.53
2022-08-14T17:38:33.669Z,32.46
2022-08-14T17:41:27.090Z,32.44
2022-08-14T17:44:20.090Z,32.34
2022-08-14T17:46:55.126Z,32.20
2022-08-14T17:49:31.960Z,32.18
2022-08-14T17:52:07.635Z,32.11
2022-08-14T17:54:52.690Z,32.06
2022-08-14T17:57:29.486Z,31.96
2022-08-14T18:00:06.030Z,31.89
2022-08-14T18:02:37.834Z,31.73
2022-08-14T18:05:09.310Z,31.63
2022-08-14T18:08:00.241Z,31.59
2022-08-14T18:10:53.186Z,31.44
2022-08-14T18:13:16.879Z,31.38
2022-08-14T18:15:51.122Z,31.33
2022-08-14T18:18:19.913Z,31.30
2022-08-14T18:21:40.420Z,31.19
2022-08-14T18:23:42.811Z,31.17
2022-08-14T18:26:36.788Z,31.08
2022-08-14T18:29:01.429Z,31.05
2022-08-14T18:31:41.936Z,30.97
2022-08-14T18:34:31.697Z,30.95
2022-08-14T18:37:17.593Z,30.89
2022-08-14T18:40:02.757Z,30.80
2022-08-14T18:42:35.223Z,30.77
2022-08-14T18:45:15.263Z,30.71
2022-08-14T18:48:14.105Z,30.62
2022-08-14T18:50:46.120Z,30.59
2022-08-14T18:53:15.248Z,30.58
2022-08-14T18:55:54.493Z,30.54
2022-08-14T18:58:44.504Z,30.47
2022-08-14T19:01:29.770Z,30.42
2022-08-14T19:04:01.549Z,30.34
2022-08-14T19:06:40.141Z,30.29
2022-08-14T19:09:08.810Z,30.27
2022-08-14T19:11:39.293Z,30.21
2022-08-14T19:14:13.204Z,30.13
2022-08-14T19:16:48.300Z,30.14
2022-08-14T19:19:23.893Z,30.10
2022-08-14T19:21:57.345Z,30.03
2022-08-14T19:24:34.188Z,30.02
2022-08-14T19:27:26.067Z,29.93
2022-08-14T19:30:19.760Z,29.83
2022-08-14T19:32:55.975Z,29.75
2022-08-14T19:35:55.541Z,29.67
2022-08-14T19:38:59.254Z,29.74
2022-08-14T19:41:33.826Z,29.54
2022-08-14T19:44:14.443Z,29.45
2022-08-14T19:47:01.965Z,29.40
2022-08-14T19:50:08.602Z,29.34
2022-08-14T19:52:37.335Z,29.32
2022-08-14T19:55:20.756Z,29.32
2022-08-14T19:58:04.223Z,29.30
2022-08-14T20:00:33.130Z,29.25
2022-08-14T20:03:11.875Z,29.20
2022-08-14T20:05:45.399Z,29.15
2022-08-14T20:10:59.506Z,29.17
2022-08-14T20:11:20.821Z,29.18
2022-08-14T20:14:12.428Z,29.10
2022-08-14T20:16:53.002Z,29.02
2022-08-14T20:19:29.049Z,29.03
2022-08-14T20:22:36.948Z,29.06
2022-08-14T20:24:54.462Z,29.01
2022-08-14T20:27:33.110Z,28.92
2022-08-14T20:30:33.515Z,28.93
2022-08-14T20:33:11.797Z,28.90
2022-08-14T20:35:39.537Z,28.75
2022-08-14T20:38:30.648Z,28.76
2022-08-14T20:41:10.582Z,28.70
2022-08-14T20:44:00.768Z,28.69
2022-08-14T20:46:38.293Z,28.75
2022-08-14T20:49:16.824Z,28.77
2022-08-14T20:51:59.402Z,28.71
2022-08-14T20:54:36.874Z,28.74
2022-08-14T20:57:18.630Z,28.78
2022-08-14T20:59:53.689Z,28.73
2022-08-14T21:02:46.368Z,28.74
2022-08-14T21:05:33.550Z,28.64
2022-08-14T21:08:09.973Z,28.65
2022-08-14T21:10:56.734Z,28.67
2022-08-14T21:14:18.945Z,28.66
2022-08-14T21:16:34.761Z,28.59
2022-08-14T21:19:04.159Z,28.57
2022-08-14T21:21:40.796Z,28.57
2022-08-14T21:24:39.749Z,28.57
2022-08-14T21:27:19.767Z,28.56
2022-08-14T21:29:54.949Z,28.53
2022-08-14T21:32:34.672Z,28.51
2022-08-14T21:35:08.331Z,28.52
2022-08-14T21:37:45.148Z,28.41
2022-08-14T21:40:29.691Z,28.38
2022-08-14T21:43:06.263Z,28.38
2022-08-14T21:45:55.792Z,28.36
2022-08-14T21:48:30.925Z,28.38
2022-08-14T21:51:54.462Z,28.25
2022-08-14T21:53:58.213Z,28.21
2022-08-14T21:56:41.064Z,28.22
2022-08-14T21:59:29.310Z,28.21
2022-08-14T22:02:03.888Z,28.25
2022-08-14T22:04:40.804Z,28.27
2022-08-14T22:07:18.629Z,28.31
2022-08-14T22:09:54.660Z,28.33
2022-08-14T22:12:45.459Z,28.33
2022-08-14T22:15:17.962Z,28.31
2022-08-14T22:17:52.496Z,28.22
2022-08-14T22:20:25.772Z,28.14
2022-08-14T22:22:56.084Z,28.11
2022-08-14T22:25:33.363Z,28.12
2022-08-14T22:28:18.035Z,28.16
2022-08-14T22:30:47.815Z,28.10
2022-08-14T22:33:30.641Z,28.14
2022-08-14T22:36:25.552Z,28.14
2022-08-14T22:38:55.362Z,28.09
2022-08-14T22:41:26.892Z,28.05
2022-08-14T22:44:10.920Z,28.03
2022-08-14T22:46:43.206Z,28.01
2022-08-14T22:49:16.631Z,27.98
2022-08-14T22:52:02.647Z,27.97
2022-08-14T22:54:52.718Z,27.94
2022-08-14T22:57:22.527Z,27.90
2022-08-14T22:59:52.435Z,27.87
2022-08-14T23:02:32.055Z,27.81
2022-08-14T23:05:04.734Z,27.76
2022-08-14T23:08:57.755Z,27.68
2022-08-14T23:10:32.427Z,27.68
2022-08-14T23:13:06.728Z,27.67
2022-08-14T23:15:37.603Z,27.60
2022-08-14T23:18:05.690Z,27.62
2022-08-14T23:20:36.339Z,27.67
2022-08-14T23:23:13.545Z,27.66
2022-08-14T23:25:59.412Z,27.56
2022-08-14T23:28:33.603Z,27.55
2022-08-14T23:31:33.592Z,27.56
2022-08-14T23:34:07.597Z,27.60
2022-08-14T23:36:52.948Z,27.61
2022-08-14T23:39:32.544Z,27.62
2022-08-14T23:42:09.030Z,27.63
2022-08-14T23:44:38.968Z,27.62
2022-08-14T23:47:10.930Z,27.62
2022-08-14T23:49:49.671Z,27.84
2022-08-14T23:52:57.514Z,27.67
2022-08-14T23:55:17.366Z,27.61
2022-08-14T23:57:57.269Z,27.53
